createdAt,value
2019-04-04T10:32:45.769Z,1980.00
2019-04-04T10:33:45.775Z,1963.12
2019-04-04T10:34:45.745Z,1766.25
2019-04-04T10:35:45.737Z,1811.25
2019-04-04T10:36:45.732Z,1434.37
2019-04-04T10:37:45.719Z,1305.00
2019-04-04T10:38:45.703Z,1333.12
2019-04-04T10:39:45.693Z,1068.75
2019-04-04T10:40:45.686Z,1726.87
2019-04-04T10:41:45.679Z,2109.37
2019-04-04T10:42:45.662Z,2143.12
2019-04-04T10:43:45.650Z,2148.75
2019-04-04T10:44:45.640Z,1951.87
2019-04-04T10:45:45.631Z,1805.62
2019-04-04T10:46:45.618Z,1845.00
2019-04-04T10:47:45.611Z,1726.87
2019-04-04T10:48:45.600Z,1462.50
2019-04-04T10:49:45.586Z,1507.50
2019-04-04T10:50:45.576Z,1440.00
2019-04-04T10:51:45.568Z,1400.62
2019-04-04T10:52:45.564Z,1580.62
2019-04-04T10:53:45.545Z,1485.00
2019-04-04T10:54:45.537Z,1524.37
2019-04-04T10:55:45.522Z,2070.00
2019-04-04T10:56:45.516Z,2075.62
2019-04-04T10:57:45.502Z,1935.00
2019-04-04T10:58:45.492Z,1946.25
2019-04-04T10:59:45.485Z,2064.37
2019-04-04T11:00:45.470Z,1963.12
2019-04-04T11:01:45.463Z,1890.00
2019-04-04T11:02:45.452Z,1974.37
2019-04-04T11:03:45.447Z,2075.62
2019-04-04T11:04:45.432Z,1974.37
2019-04-04T11:05:45.425Z,2008.12
2019-04-04T11:06:45.415Z,2092.50
2019-04-04T11:07:45.428Z,2070.00
2019-04-04T11:08:45.424Z,1811.25
2019-04-04T11:09:45.509Z,1642.50
2019-04-04T11:10:45.449Z,1918.12
2019-04-04T11:11:45.373Z,2002.50
2019-04-04T11:12:45.375Z,1940.62
2019-04-04T11:13:45.376Z,1811.25
2019-04-04T11:14:45.327Z,1822.50
2019-04-04T11:15:45.314Z,1906.87
2019-04-04T11:16:45.307Z,1710.00
2019-04-04T11:17:45.304Z,1631.25
2019-04-04T11:18:45.285Z,1710.00
2019-04-04T11:19:45.276Z,1856.25
2019-04-04T11:20:45.267Z,1822.50
2019-04-04T11:21:45.255Z,1935.00
2019-04-04T11:22:45.249Z,1968.75
2019-04-04T11:23:45.240Z,1935.00
2019-04-04T11:24:45.268Z,1738.12
2019-04-04T11:25:45.217Z,1743.75
2019-04-04T11:26:45.211Z,1721.25
2019-04-04T11:27:45.194Z,1693.12
2019-04-04T11:28:45.184Z,1620.00
2019-04-04T11:29:45.170Z,1552.50
2019-04-04T11:30:45.160Z,1473.75
2019-04-04T11:31:45.148Z,1282.50
2019-04-04T11:32:45.139Z,1417.50
2019-04-04T11:33:45.357Z,1440.00
2019-04-04T11:34:53.010Z,1659.37
2019-04-04T11:36:09.583Z,1676.25
2019-04-04T11:37:09.579Z,1620.00
2019-04-04T11:38:09.565Z,1788.75
2019-04-04T11:39:09.557Z,1546.87
2019-04-04T11:40:09.538Z,1395.00
2019-04-04T11:41:09.544Z,1220.62
2019-04-04T11:42:09.523Z,1372.50
2019-04-04T11:43:09.508Z,1636.87
2019-04-04T11:44:09.497Z,1901.25
2019-04-04T11:45:09.491Z,1884.37
2019-04-04T11:46:09.477Z,1867.50
2019-04-04T11:47:09.473Z,1513.12
2019-04-04T11:48:09.454Z,1766.25
2019-04-04T11:49:09.449Z,1912.50
2019-04-04T11:50:09.434Z,1670.62
2019-04-04T11:51:09.422Z,1563.75
2019-04-04T11:52:09.410Z,1558.12
2019-04-04T11:53:09.638Z,1355.62
2019-04-04T11:54:09.439Z,1440.00
2019-04-04T11:55:09.413Z,1400.62
2019-04-04T11:56:09.379Z,1355.62
2019-04-04T11:57:09.400Z,1366.87
2019-04-04T11:58:09.346Z,1473.75
2019-04-04T11:59:09.377Z,1468.12
2019-04-04T12:00:09.365Z,1096.87
2019-04-04T12:01:09.321Z,798.75
2019-04-04T12:02:09.312Z,675.00
2019-04-04T12:03:09.295Z,843.75
2019-04-04T12:04:09.284Z,894.37
2019-04-04T12:05:09.485Z,1074.37
2019-04-04T12:06:09.270Z,630.00
2019-04-04T12:07:09.258Z,641.25
2019-04-04T12:08:09.241Z,928.12
2019-04-04T12:09:09.234Z,1411.87
2019-04-04T12:10:09.224Z,1046.25
2019-04-04T12:11:09.211Z,725.62
2019-04-04T12:12:09.203Z,787.50
2019-04-04T12:13:09.187Z,770.62
2019-04-04T12:14:09.175Z,652.50
2019-04-04T12:15:09.172Z,680.62
2019-04-04T12:16:09.154Z,630.00
2019-04-04T12:17:09.151Z,528.75
2019-04-04T12:18:09.139Z,489.37
2019-04-04T12:19:09.123Z,427.50
2019-04-04T12:20:09.112Z,365.62
2019-04-04T12:21:09.103Z,500.62
2019-04-04T12:22:11.652Z,641.25
2019-04-04T12:23:09.080Z,821.25
2019-04-04T12:24:09.068Z,1012.50
2019-04-04T12:25:09.057Z,1248.75
2019-04-04T12:26:09.050Z,956.25
2019-04-04T12:27:09.038Z,826.87
2019-04-04T12:28:09.024Z,770.62
2019-04-04T12:29:09.012Z,613.12
2019-04-04T12:30:09.018Z,708.75
2019-04-04T12:31:08.993Z,641.25
2019-04-04T12:32:08.981Z,798.75
2019-04-04T12:33:08.980Z,815.62
2019-04-04T12:34:08.963Z,978.75
2019-04-04T12:35:08.948Z,978.75
2019-04-04T12:36:08.936Z,1096.87
2019-04-04T12:37:08.927Z,1147.50
2019-04-04T12:38:08.917Z,1164.37
2019-04-04T12:39:08.903Z,1063.12
2019-04-04T12:40:19.881Z,967.50
2019-04-04T12:41:33.396Z,933.75
2019-04-04T12:42:33.393Z,978.75
2019-04-04T12:43:33.375Z,990.00
2019-04-04T12:44:33.364Z,984.37
2019-04-04T12:45:33.355Z,978.75
2019-04-04T12:46:33.340Z,888.75
2019-04-04T12:47:33.333Z,939.37
2019-04-04T12:48:33.322Z,905.62
2019-04-04T12:49:33.323Z,866.25
2019-04-04T12:50:33.311Z,843.75
2019-04-04T12:51:33.288Z,770.62
2019-04-04T12:52:33.284Z,832.50
2019-04-04T12:53:33.269Z,843.75
2019-04-04T12:54:33.256Z,855.00
2019-04-04T12:55:33.246Z,849.37
2019-04-04T12:56:33.235Z,826.87
2019-04-04T12:57:33.224Z,714.37
2019-04-04T12:58:33.223Z,669.37
2019-04-04T12:59:33.201Z,551.25
2019-04-04T13:00:33.191Z,376.87
2019-04-04T13:01:33.185Z,315.00
2019-04-04T13:02:33.169Z,298.12
2019-04-04T13:03:33.231Z,286.87
2019-04-04T13:04:33.149Z,281.25
2019-04-04T13:05:33.142Z,270.00
2019-04-04T13:06:33.128Z,264.37
2019-04-04T13:07:33.116Z,264.37
2019-04-04T13:08:35.108Z,264.37
2019-04-04T13:09:33.094Z,253.12
2019-04-04T13:10:33.692Z,247.50
2019-04-04T13:11:33.085Z,247.50
2019-04-04T13:12:33.072Z,241.87
2019-04-04T13:13:33.061Z,247.50
2019-04-04T13:14:33.042Z,247.50
2019-04-04T13:15:33.039Z,247.50
2019-04-04T13:16:33.023Z,241.87
2019-04-04T13:17:33.012Z,241.87
2019-04-04T13:18:33.001Z,236.25
2019-04-04T13:19:32.988Z,236.25
2019-04-04T13:20:32.985Z,230.62
2019-04-04T13:21:32.971Z,230.62
2019-04-04T13:22:32.958Z,225.00
2019-04-04T13:23:32.948Z,225.00
2019-04-04T13:24:32.936Z,225.00
2019-04-04T13:25:32.928Z,219.37
2019-04-04T13:26:32.922Z,219.37
2019-04-04T13:27:32.906Z,213.75
2019-04-04T13:28:32.896Z,213.75
2019-04-04T13:29:32.891Z,208.12
2019-04-04T13:30:32.872Z,208.12
2019-04-04T13:31:32.861Z,208.12
2019-04-04T13:32:32.850Z,202.50
2019-04-04T13:33:32.840Z,202.50
2019-04-04T13:34:32.864Z,196.87
2019-04-04T13:35:32.818Z,196.87
2019-04-04T13:36:32.813Z,191.25
2019-04-04T13:37:32.795Z,191.25
2019-04-04T13:38:32.788Z,185.62
2019-04-04T13:39:32.782Z,185.62
2019-04-04T13:40:44.434Z,185.62
2019-04-04T13:41:33.773Z,185.62
2019-04-04T13:42:32.747Z,185.62
2019-04-04T13:43:32.733Z,180.00
2019-04-04T13:44:32.722Z,180.00
2019-04-04T13:45:32.711Z,180.00
2019-04-04T13:46:32.698Z,174.37
2019-04-04T13:47:32.718Z,174.37
2019-04-04T13:48:32.715Z,174.37
2019-04-04T13:49:32.671Z,174.37
2019-04-04T13:50:32.664Z,174.37
2019-04-04T13:51:32.643Z,174.37
2019-04-04T13:52:32.633Z,168.75
2019-04-04T13:53:32.622Z,168.75
2019-04-04T13:54:32.624Z,168.75
2019-04-04T13:55:32.606Z,168.75
2019-04-04T13:56:32.588Z,168.75
2019-04-04T13:57:32.581Z,163.12
2019-04-04T13:58:32.567Z,163.12
2019-04-04T13:59:32.559Z,163.12
2019-04-04T14:00:32.550Z,163.12
2019-04-04T14:01:32.541Z,163.12
2019-04-04T14:02:32.531Z,163.12
2019-04-04T14:03:32.514Z,163.12
2019-04-04T14:04:32.503Z,163.12
2019-04-04T14:05:32.492Z,157.50
2019-04-04T14:06:32.482Z,157.50
2019-04-04T14:07:32.478Z,157.50
2019-04-04T14:08:32.460Z,157.50
2019-04-04T14:09:32.450Z,151.87
2019-04-04T14:10:32.441Z,151.87
2019-04-04T14:11:32.429Z,151.87
2019-04-04T14:12:32.419Z,151.87
2019-04-04T14:13:32.416Z,151.87
2019-04-04T14:14:32.397Z,151.87
2019-04-04T14:15:32.386Z,151.87
2019-04-04T14:16:32.374Z,146.25
2019-04-04T14:17:32.369Z,146.25
2019-04-04T14:18:39.594Z,146.25
2019-04-04T14:19:56.816Z,146.25
2019-04-04T14:21:03.538Z,146.25
2019-04-04T14:21:57.817Z,140.62
2019-04-04T14:22:56.788Z,140.62
2019-04-04T14:23:57.123Z,140.62
2019-04-04T14:24:56.769Z,140.62
2019-04-04T14:25:59.622Z,140.62
2019-04-04T14:26:56.744Z,140.62
2019-04-04T14:27:58.220Z,140.62
2019-04-04T14:28:56.721Z,140.62
2019-04-04T14:29:56.708Z,140.62
2019-04-04T14:30:56.697Z,140.62
2019-04-04T14:31:56.690Z,140.62
2019-04-04T14:32:56.676Z,140.62
2019-04-04T14:33:56.664Z,140.62
2019-04-04T14:34:56.652Z,140.62
2019-04-04T14:35:56.645Z,140.62
2019-04-04T14:36:56.636Z,135.00
2019-04-04T14:37:56.628Z,135.00
2019-04-04T14:38:56.623Z,135.00
2019-04-04T14:39:56.603Z,135.00
2019-04-04T14:40:56.589Z,135.00
2019-04-04T14:41:56.579Z,135.00
2019-04-04T14:42:56.564Z,135.00
2019-04-04T14:43:59.967Z,129.37
2019-04-04T14:44:56.547Z,129.37
2019-04-04T14:45:56.532Z,129.37
2019-04-04T14:46:56.522Z,129.37
2019-04-04T14:47:56.515Z,123.75
2019-04-04T14:48:56.503Z,118.12
2019-04-04T14:49:56.489Z,118.12
2019-04-04T14:50:56.479Z,112.50
2019-04-04T14:51:56.476Z,101.25
2019-04-04T14:52:56.489Z,101.25
2019-04-04T14:53:57.979Z,101.25
2019-04-04T14:54:56.440Z,95.62
2019-04-04T14:55:56.433Z,95.62
2019-04-04T14:56:56.421Z,95.62
2019-04-04T14:57:56.401Z,95.62
2019-04-04T14:58:56.389Z,95.62
2019-04-04T14:59:56.390Z,95.62
2019-04-04T15:00:56.370Z,101.25
2019-04-04T15:01:56.360Z,101.25
2019-04-04T15:02:56.347Z,101.25
2019-04-04T15:03:56.335Z,101.25
2019-04-04T15:04:56.326Z,106.87
2019-04-04T15:05:56.364Z,106.87
2019-04-04T15:06:56.304Z,106.87
2019-04-04T15:07:56.301Z,112.50
2019-04-04T15:08:56.281Z,112.50
2019-04-04T15:09:56.274Z,112.50
2019-04-04T15:10:56.257Z,112.50
2019-04-04T15:11:56.245Z,112.50
2019-04-04T15:12:56.251Z,112.50
2019-04-04T15:13:56.249Z,118.12
2019-04-04T15:14:56.253Z,118.12
2019-04-04T15:15:56.208Z,118.12
2019-04-04T15:16:56.198Z,118.12
2019-04-04T15:17:56.199Z,118.12
2019-04-04T15:18:56.205Z,118.12
2019-04-04T15:19:56.214Z,118.12
2019-04-04T15:20:57.007Z,118.12
2019-04-04T15:21:56.135Z,118.12
2019-04-04T15:22:56.124Z,123.75
2019-04-04T15:23:56.119Z,123.75
2019-04-04T15:24:56.106Z,129.37
2019-04-04T15:25:56.090Z,135.00
2019-04-04T15:26:56.090Z,146.25
2019-04-04T15:27:56.070Z,140.62
2019-04-04T15:28:56.058Z,135.00
2019-04-04T15:29:56.049Z,135.00
2019-04-04T15:30:56.034Z,129.37
2019-04-04T15:31:56.019Z,129.37
2019-04-04T15:32:56.012Z,129.37
2019-04-04T15:33:56.000Z,129.37
2019-04-04T15:34:55.984Z,123.75
2019-04-04T15:35:55.985Z,123.75
2019-04-04T15:36:55.965Z,123.75
2019-04-04T15:37:55.951Z,118.12
2019-04-04T15:38:55.940Z,118.12
2019-04-04T15:39:55.933Z,112.50
2019-04-04T15:40:55.923Z,112.50
2019-04-04T15:41:55.905Z,112.50
2019-04-04T15:42:55.897Z,112.50
2019-04-04T15:43:55.884Z,112.50
2019-04-04T15:44:55.877Z,106.87
2019-04-04T15:45:55.861Z,106.87
2019-04-04T15:46:55.850Z,101.25
2019-04-04T15:47:55.842Z,101.25
2019-04-04T15:48:55.840Z,101.25
2019-04-04T15:49:55.821Z,101.25
2019-04-04T15:50:55.806Z,101.25
2019-04-04T15:51:55.798Z,101.25
2019-04-04T15:52:55.784Z,101.25
2019-04-04T15:53:55.781Z,101.25
2019-04-04T15:54:55.762Z,101.25
2019-04-04T15:55:55.751Z,101.25
2019-04-04T15:56:55.755Z,101.25
2019-04-04T15:57:55.734Z,101.25
2019-04-04T15:58:55.723Z,106.87
2019-04-04T15:59:55.702Z,106.87
2019-04-04T16:00:55.698Z,112.50
2019-04-04T16:01:55.680Z,118.12
2019-04-04T16:02:55.671Z,123.75
2019-04-04T16:03:55.664Z,129.37
2019-04-04T16:04:55.649Z,135.00
2019-04-04T16:05:55.639Z,129.37
2019-04-04T16:06:55.628Z,123.75
2019-04-04T16:07:55.614Z,123.75
2019-04-04T16:08:55.603Z,129.37
2019-04-04T16:09:55.593Z,135.00
2019-04-04T16:10:55.582Z,135.00
2019-04-04T16:11:55.571Z,129.37
2019-04-04T16:12:55.568Z,123.75
2019-04-04T16:13:55.548Z,118.12
2019-04-04T16:14:55.548Z,118.12
2019-04-04T16:15:55.545Z,118.12
2019-04-04T16:16:55.515Z,118.12
2019-04-04T16:17:55.503Z,112.50
2019-04-04T16:18:55.496Z,101.25
2019-04-04T16:19:55.490Z,101.25
2019-04-04T16:20:55.475Z,95.62
2019-04-04T16:21:55.465Z,95.62
2019-04-04T16:22:55.452Z,95.62
2019-04-04T16:23:55.439Z,101.25
2019-04-04T16:24:55.425Z,101.25
2019-04-04T16:25:55.416Z,101.25
2019-04-04T16:26:55.407Z,95.62
2019-04-04T16:27:55.398Z,90.00
2019-04-04T16:28:55.383Z,90.00
2019-04-04T16:29:55.372Z,84.37
2019-04-04T16:30:55.365Z,84.37
2019-04-04T16:31:55.351Z,84.37
2019-04-04T16:32:55.354Z,78.75
2019-04-04T16:33:55.327Z,78.75
2019-04-04T16:34:55.320Z,78.75
2019-04-04T16:35:55.314Z,73.12
2019-04-04T16:36:55.294Z,67.50
2019-04-04T16:37:55.292Z,67.50
2019-04-04T16:38:55.277Z,61.87
2019-04-04T16:40:07.898Z,61.87
2019-04-04T16:41:19.731Z,61.87
2019-04-04T16:42:19.726Z,56.25
2019-04-04T16:43:19.708Z,56.25
2019-04-04T16:44:19.696Z,50.62
2019-04-04T16:45:19.688Z,50.62
2019-04-04T16:46:19.674Z,50.62
2019-04-04T16:47:19.665Z,50.62
2019-04-04T16:48:19.657Z,50.62
2019-04-04T16:49:19.641Z,50.62
2019-04-04T16:50:19.630Z,50.62
2019-04-04T16:51:19.618Z,45.00
2019-04-04T16:52:19.611Z,45.00
2019-04-04T16:53:19.598Z,39.37
2019-04-04T16:54:19.596Z,39.37
2019-04-04T16:55:19.582Z,39.37
2019-04-04T16:56:19.565Z,39.37
2019-04-04T16:57:19.554Z,39.37
2019-04-04T16:58:19.547Z,39.37
2019-04-04T16:59:19.532Z,39.37
2019-04-04T17:00:21.054Z,39.37
2019-04-04T17:01:19.511Z,39.37
2019-04-04T17:02:19.498Z,39.37
2019-04-04T17:03:19.487Z,33.75
2019-04-04T17:04:19.482Z,33.75
2019-04-04T17:05:19.472Z,33.75
2019-04-04T17:06:19.461Z,33.75
2019-04-04T17:07:19.444Z,28.12
2019-04-04T17:08:19.432Z,28.12
2019-04-04T17:09:19.421Z,28.12
2019-04-04T17:10:19.417Z,28.12
2019-04-04T17:11:19.405Z,28.12
2019-04-04T17:12:19.391Z,28.12
2019-04-04T17:13:19.383Z,28.12
2019-04-04T17:14:19.391Z,28.12
2019-04-04T17:15:19.353Z,22.50
2019-04-04T17:16:21.302Z,22.50
2019-04-04T17:17:19.332Z,22.50
2019-04-04T17:18:19.322Z,22.50
2019-04-04T17:19:19.311Z,22.50
2019-04-04T17:20:20.711Z,22.50
2019-04-04T17:21:19.293Z,22.50
2019-04-04T17:22:19.276Z,16.87
2019-04-04T17:23:19.269Z,16.87
2019-04-04T17:24:19.258Z,16.87
2019-04-04T17:25:19.244Z,16.87
2019-04-04T17:26:19.238Z,16.87
2019-04-04T17:27:19.222Z,16.87
2019-04-04T17:28:19.355Z,11.25
2019-04-04T17:29:19.204Z,11.25
2019-04-04T17:30:19.727Z,11.25
2019-04-04T17:31:19.248Z,11.25
2019-04-04T17:32:19.240Z,11.25
2019-04-04T17:33:19.683Z,11.25
2019-04-04T17:34:19.196Z,11.25
2019-04-04T17:35:19.144Z,5.62
2019-04-04T17:36:21.284Z,5.62
2019-04-04T17:37:19.109Z,5.62
2019-04-04T17:38:19.364Z,5.62
2019-04-04T17:39:19.085Z,5.62
2019-04-04T17:40:19.305Z,5.62
2019-04-04T17:41:19.071Z,5.62
2019-04-04T17:42:29.206Z,5.62
2019-04-04T17:43:43.907Z,5.62
2019-04-04T17:44:43.508Z,0.00
2019-04-04T17:45:43.897Z,0.00
2019-04-04T17:46:43.688Z,0.00
2019-04-04T17:47:43.480Z,0.00
2019-04-04T17:48:43.794Z,0.00
2019-04-04T17:49:43.450Z,0.00
2019-04-04T17:50:43.875Z,0.00
2019-04-04T17:51:43.435Z,0.00
2019-04-04T17:52:43.682Z,0.00
2019-04-04T17:53:43.464Z,0.00
2019-04-04T17:54:43.393Z,0.00
2019-04-04T17:55:43.857Z,0.00
2019-04-04T17:56:43.371Z,0.00
2019-04-04T17:57:43.361Z,0.00
2019-04-04T17:58:43.351Z,0.00
2019-04-04T17:59:43.337Z,0.00
2019-04-04T18:00:43.335Z,0.00
2019-04-04T18:01:43.317Z,0.00
2019-04-04T18:02:43.304Z,0.00
2019-04-04T18:03:43.295Z,0.00
2019-04-04T18:04:48.645Z,0.00
2019-04-04T18:05:43.271Z,0.00
2019-04-04T18:06:43.266Z,0.00
2019-04-04T18:07:43.246Z,0.00
2019-04-04T18:08:43.238Z,0.00
2019-04-04T18:09:45.454Z,0.00
2019-04-04T18:10:43.221Z,0.00
2019-04-04T18:11:43.204Z,0.00
2019-04-04T18:12:43.197Z,0.00
2019-04-04T18:13:43.200Z,0.00
2019-04-04T18:14:43.173Z,0.00
2019-04-04T18:15:43.157Z,0.00
2019-04-04T18:16:43.144Z,0.00
2019-04-04T18:17:43.136Z,0.00
2019-04-04T18:18:43.121Z,0.00
2019-04-04T18:19:43.132Z,0.00
2019-04-04T18:20:43.107Z,0.00
2019-04-04T18:21:43.088Z,0.00
2019-04-04T18:22:43.084Z,0.00
2019-04-04T18:23:43.066Z,0.00
2019-04-04T18:24:43.060Z,0.00
2019-04-04T18:25:43.045Z,0.00
2019-04-04T18:26:43.037Z,0.00
2019-04-04T18:27:43.019Z,0.00
2019-04-04T18:28:43.014Z,0.00
2019-04-04T18:29:43.004Z,0.00
2019-04-04T18:30:42.987Z,0.00
2019-04-04T18:32:42.967Z,0.00
2019-04-04T18:36:42.920Z,0.00
2019-04-04T18:37:42.911Z,0.00
2019-04-04T18:38:42.899Z,0.00
2019-04-04T18:39:42.946Z,0.00
2019-04-04T18:41:42.867Z,0.00
2019-04-04T18:42:52.671Z,0.00
2019-04-04T18:44:07.320Z,0.00
